• Join FlightAware (Why Join?)
  • Login
  • US Flag 
11:36PM EDT


 

Airport Tracker/Info


-or-


 

Live Flight TrackerFlight Track Log ✈ UAL4846 ✈ 23-Apr-2013 ✈ KROC - KEWR

Flight Track Log - Related Links

Times and Time Zones

All times are in EDT time to prevent confusion due to time zone crossing. See the UAL4846 flight status page for this flight to view local times or setup timezone preferences in your user account.

Time Position Orientation Groundspeed Altitude Reporting Facility
EDT Latitude Longitude Course Direction KTS MPH feet Rate Location/Type
07:01AM 42.4123 -76.6072 132° Southeast  Level Estimated
07:02AM 42.3678 -76.5415 132° Southeast  Level Estimated
07:03AM 42.3232 -76.4759 133° Southeast  Level Estimated
07:04AM 42.2786 -76.4103 133° Southeast  Level Estimated
07:05AM 42.2340 -76.3448 133° Southeast  Level Estimated
07:06AM 42.1894 -76.2795 133° Southeast  Level Estimated
07:07AM 42.1447 -76.2142 133° Southeast  Level Estimated
07:08AM 42.1000 -76.1490 133° Southeast  Level Estimated
07:09AM 42.0552 -76.0839 133° Southeast  Level Estimated
07:10AM 42.0104 -76.0189 133° Southeast  Level Estimated
07:11AM 41.9656 -75.9540 133° Southeast  Level Estimated
07:12AM 41.9207 -75.8892 133° Southeast  Level Estimated
07:13AM 41.8758 -75.8245 133° Southeast  Level Estimated
07:14AM 41.8308 -75.7599 133° Southeast  Level Estimated
07:15AM 41.7859 -75.6953 133° Southeast  Level Estimated
07:16AM 41.7408 -75.6309 133° Southeast  Level Estimated
07:17AM 41.6958 -75.5665 133° Southeast  Level Estimated
07:18AM 41.6507 -75.5022 133° Southeast  Level Estimated
07:19AM 41.6056 -75.4381 133° Southeast  Level Estimated
07:20AM 41.5604 -75.3740 133° Southeast  Level Estimated
07:21AM 41.5152 -75.3100 133° Southeast  Level Estimated
07:22AM 41.4700 -75.2461 133° Southeast  Level Estimated
07:23AM 41.4247 -75.1822 133° Southeast  Level Estimated
07:24AM 41.3794 -75.1185 133° Southeast  Level Estimated
07:25AM 41.3341 -75.0548 133° Southeast  Level Estimated
07:26AM 41.2887 -74.9913 134° Southeast  Level Estimated
07:27AM 41.2433 -74.9278 134° Southeast  Level Estimated
07:28AM 41.1978 -74.8644 134° Southeast  Level Estimated
07:29AM 41.1524 -74.8011 134° Southeast  Level Estimated
07:30AM 41.1068 -74.7379 134° Southeast  Level Estimated
07:31AM 41.0613 -74.6748 134° Southeast  Level Estimated
07:32AM 41.0157 -74.6118 134° Southeast  Level Estimated
07:33AM 40.9701 -74.5489 134° Southeast  Level Estimated
07:34AM 40.9244 -74.4860 134° Southeast  Level Estimated
07:35AM 40.8788 -74.4232 134° Southeast  Level Estimated
07:36AM 40.8330 -74.3605 134° Southeast  Level Estimated
07:37AM 40.7873 -74.2979 134° Southeast  Level Estimated
07:38AM 40.7415 -74.2354 134° Southeast  Level Estimated
07:39AM 40.6957 -74.1730 134° Southeast  Level Estimated
07:40AM 40.6925 -74.1687 134° Southeast  Level Estimated
07:41AM 40.6925 -74.1687 90° East  Level Estimated
07:42AM 40.6925 -74.1687 90° East  Level Estimated
07:43AM 40.6925 -74.1687 90° East  Level Estimated
07:44AM 40.6925 -74.1687 90° East  Level Estimated
07:45AM 40.6925 -74.1687 90° East  Level Estimated
07:46AM 40.6925 -74.1687 90° East  Level Estimated
07:47AM 40.6925 -74.1687 90° East  Level Estimated
07:48AM 40.6925 -74.1687 90° East  Level Estimated
07:49AM 40.6925 -74.1687 90° East  Level Estimated
07:50AM 40.6925 -74.1687 90° East  Level Estimated
07:51AM 40.6925 -74.1687 90° East  Level Estimated
07:52AM 40.6925 -74.1687 90° East  Level Estimated
07:53AM 40.6925 -74.1687 90° East  Level Estimated
07:54AM 40.6925 -74.1687 90° East  Level Estimated
07:55AM 40.6925 -74.1687 90° East  Level Estimated